Time;durP1;ratioP1;P1;durP2;ratioP2;P2;SDS_P1;SDS_P2;PMS_P1;PMS_P2;Temp;Humidity;BMP_temperature;BMP_pressure;BME280_temperature;BME280_humidity;BME280_pressure;Samples;Min_cycle;Max_cycle;Signal;HPM_P1;HPM_P2
2024/03/12 00:01:48;;;;;;;10.45;4.85;;;;;;;;;;5016557;28;20394;-59
2024/03/12 00:04:13;;;;;;;9.33;5.17;;;;;;;;;;5018463;28;20026;-61
2024/03/12 00:06:42;;;;;;;11.63;5.43;;;;;;;;;;5016561;28;20478;-60
2024/03/12 00:09:09;;;;;;;11.27;5.82;;;;;;;;;;5023981;28;20374;-59
2024/03/12 00:11:34;;;;;;;11.93;5.47;;;;;;;;;;5024544;28;20018;-60
2024/03/12 00:13:59;;;;;;;9.70;5.10;;;;;;;;;;5019967;28;20036;-58
2024/03/12 00:16:25;;;;;;;11.17;5.40;;;;;;;;;;5015250;28;21051;-60
2024/03/12 00:18:55;;;;;;;10.45;5.45;;;;;;;;;;5024731;28;20437;-58
2024/03/12 00:21:20;;;;;;;10.07;4.97;;;;;;;;;;5014554;28;20107;-59
2024/03/12 00:23:46;;;;;;;11.80;4.93;;;;;;;;;;5013985;28;20022;-59
2024/03/12 00:26:11;;;;;;;10.77;5.10;;;;;;;;;;5020445;28;20021;-59
2024/03/12 00:28:36;;;;;;;12.27;5.53;;;;;;;;;;5014216;28;20452;-59
2024/03/12 00:31:01;;;;;;;10.63;5.60;;;;;;;;;;5013833;28;20098;-60
2024/03/12 00:33:26;;;;;;;8.88;4.53;;;;;;;;;;5013456;28;20064;-59
2024/03/12 00:35:52;;;;;;;10.77;4.75;;;;;;;;;;5008368;28;20510;-61
2024/03/12 00:38:17;;;;;;;10.75;5.03;;;;;;;;;;5015062;28;20053;-60
2024/03/12 00:40:42;;;;;;;9.45;5.78;;;;;;;;;;5009013;28;20026;-60
2024/03/12 00:43:08;;;;;;;8.27;4.60;;;;;;;;;;5012091;28;20049;-59
2024/03/12 00:45:36;;;;;;;9.43;5.30;;;;;;;;;;5011993;28;20025;-60
2024/03/12 00:48:02;;;;;;;10.23;4.70;;;;;;;;;;5014073;28;20429;-60
2024/03/12 00:50:27;;;;;;;10.52;5.30;;;;;;;;;;5009481;28;20033;-59
2024/03/12 00:52:52;;;;;;;9.45;4.90;;;;;;;;;;5003810;28;20026;-59
2024/03/12 00:55:18;;;;;;;9.23;4.80;;;;;;;;;;5011850;28;20076;-59
2024/03/12 00:57:45;;;;;;;9.75;5.35;;;;;;;;;;5011783;28;20026;-60
2024/03/12 01:00:16;;;;;;;10.30;5.50;;;;;;;;;;5011327;28;20018;-59
2024/03/12 01:02:44;;;;;;;9.75;5.10;;;;;;;;;;5010381;28;20112;-58
2024/03/12 01:05:12;;;;;;;10.38;4.90;;;;;;;;;;5012467;28;20026;-58
2024/03/12 01:07:38;;;;;;;10.25;5.78;;;;;;;;;;5003586;28;20102;-59
2024/03/12 01:10:03;;;;;;;10.43;5.50;;;;;;;;;;5011608;28;20026;-60
2024/03/12 01:12:28;;;;;;;10.65;4.90;;;;;;;;;;5012176;28;20034;-60
2024/03/12 01:14:53;;;;;;;8.38;4.68;;;;;;;;;;5011676;28;20560;-59
2024/03/12 01:17:22;;;;;;;12.23;5.27;;;;;;;;;;5013321;28;20025;-59
2024/03/12 01:19:48;;;;;;;9.15;4.82;;;;;;;;;;5003406;28;20468;-59
2024/03/12 01:22:13;;;;;;;10.85;5.28;;;;;;;;;;5006042;28;20092;-60
2024/03/12 01:24:40;;;;;;;11.43;4.90;;;;;;;;;;5010736;28;20486;-58
2024/03/12 01:27:05;;;;;;;8.70;4.78;;;;;;;;;;5003505;28;20505;-59
2024/03/12 01:29:33;;;;;;;9.70;4.78;;;;;;;;;;5010277;28;20121;-58
2024/03/12 01:31:58;;;;;;;8.48;4.75;;;;;;;;;;5011292;28;20104;-59
2024/03/12 01:34:23;;;;;;;9.60;5.00;;;;;;;;;;5010455;28;20172;-59
2024/03/12 01:36:49;;;;;;;11.13;5.43;;;;;;;;;;5014274;28;20022;-61
2024/03/12 01:39:24;;;;;;;9.93;5.20;;;;;;;;;;5011309;28;20490;-59
2024/03/12 01:41:51;;;;;;;13.32;5.32;;;;;;;;;;5010766;28;20036;-59
2024/03/12 01:44:16;;;;;;;11.48;5.18;;;;;;;;;;5011411;28;20069;-57
2024/03/12 01:46:54;;;;;;;10.80;4.90;;;;;;;;;;5011186;28;20048;-59
2024/03/12 01:49:20;;;;;;;10.00;5.03;;;;;;;;;;5008627;28;20065;-59
2024/03/12 01:51:46;;;;;;;9.07;4.40;;;;;;;;;;5010073;28;20033;-60
2024/03/12 01:54:11;;;;;;;9.80;5.05;;;;;;;;;;5010500;28;20022;-59
2024/03/12 01:56:36;;;;;;;11.50;5.05;;;;;;;;;;5010482;28;20481;-59
2024/03/12 01:59:01;;;;;;;9.83;4.87;;;;;;;;;;5006426;28;20026;-58
2024/03/12 02:01:27;;;;;;;10.77;5.00;;;;;;;;;;5011342;28;20033;-59
2024/03/12 02:03:52;;;;;;;9.73;5.15;;;;;;;;;;5011618;28;20030;-59
2024/03/12 02:06:23;;;;;;;10.77;4.50;;;;;;;;;;5013713;28;20409;-60
2024/03/12 02:08:49;;;;;;;8.93;4.68;;;;;;;;;;4998323;28;20117;-59
2024/03/12 02:11:14;;;;;;;9.60;4.85;;;;;;;;;;5011628;28;20106;-59
2024/03/12 02:13:40;;;;;;;10.83;4.77;;;;;;;;;;5011729;28;20014;-59
2024/03/12 02:16:05;;;;;;;9.65;5.15;;;;;;;;;;5013701;28;20030;-59
2024/03/12 02:18:32;;;;;;;10.57;5.25;;;;;;;;;;5011312;28;20034;-59
2024/03/12 02:20:58;;;;;;;9.98;4.93;;;;;;;;;;5010914;28;20097;-61
2024/03/12 02:23:33;;;;;;;9.73;4.97;;;;;;;;;;5010998;28;20165;-60
2024/03/12 02:25:58;;;;;;;9.27;5.13;;;;;;;;;;5012520;28;20026;-59
2024/03/12 02:28:23;;;;;;;8.52;4.75;;;;;;;;;;5010505;28;20367;-61
2024/03/12 02:30:49;;;;;;;9.13;4.63;;;;;;;;;;5011155;28;20022;-59
2024/03/12 02:33:14;;;;;;;8.90;5.00;;;;;;;;;;5014742;28;20049;-59
2024/03/12 02:35:39;;;;;;;9.98;5.15;;;;;;;;;;5010792;28;20058;-60
2024/03/12 02:38:05;;;;;;;9.77;4.53;;;;;;;;;;5010619;28;20513;-59
2024/03/12 02:40:30;;;;;;;8.63;4.45;;;;;;;;;;5011004;28;20068;-59
2024/03/12 02:42:56;;;;;;;9.95;4.97;;;;;;;;;;5011721;28;20030;-59
2024/03/12 02:45:23;;;;;;;9.70;4.97;;;;;;;;;;5012315;28;20030;-58
2024/03/12 02:47:48;;;;;;;10.70;4.80;;;;;;;;;;5000681;28;20433;-61
2024/03/12 02:50:13;;;;;;;9.55;5.20;;;;;;;;;;5011832;28;20030;-60
2024/03/12 02:52:39;;;;;;;10.80;5.60;;;;;;;;;;5012235;28;20022;-60
2024/03/12 02:55:04;;;;;;;12.80;5.43;;;;;;;;;;5016824;28;20022;-59
2024/03/12 02:57:29;;;;;;;9.57;4.78;;;;;;;;;;5014913;28;20105;-59
2024/03/12 02:59:54;;;;;;;9.07;5.10;;;;;;;;;;5014145;28;20036;-59
2024/03/12 03:02:20;;;;;;;9.65;5.32;;;;;;;;;;5016053;28;20033;-61
2024/03/12 03:04:45;;;;;;;10.77;5.38;;;;;;;;;;5023845;28;20028;-60
2024/03/12 03:07:11;;;;;;;10.55;5.18;;;;;;;;;;5022325;28;20034;-60
2024/03/12 03:09:36;;;;;;;9.30;4.80;;;;;;;;;;5029413;28;20501;-59
2024/03/12 03:12:01;;;;;;;8.75;4.45;;;;;;;;;;5028358;28;20382;-58
2024/03/12 03:14:26;;;;;;;8.87;4.80;;;;;;;;;;5026695;28;20332;-60
2024/03/12 03:16:54;;;;;;;9.30;4.50;;;;;;;;;;5027233;28;20448;-63
2024/03/12 03:19:19;;;;;;;11.35;5.05;;;;;;;;;;5024238;28;20109;-61
2024/03/12 03:21:44;;;;;;;9.90;4.80;;;;;;;;;;5025444;28;20045;-60
2024/03/12 03:24:09;;;;;;;10.37;5.40;;;;;;;;;;5032291;28;20125;-60
2024/03/12 03:26:34;;;;;;;9.80;4.73;;;;;;;;;;5026049;28;20018;-60
2024/03/12 03:28:59;;;;;;;8.63;4.53;;;;;;;;;;5028880;28;20032;-60
2024/03/12 03:31:25;;;;;;;9.88;4.90;;;;;;;;;;5029165;28;20058;-60
2024/03/12 03:33:50;;;;;;;10.57;5.22;;;;;;;;;;5035606;28;20014;-59
2024/03/12 03:36:16;;;;;;;10.60;5.40;;;;;;;;;;5024209;28;20034;-60
2024/03/12 03:38:42;;;;;;;11.38;5.40;;;;;;;;;;5014821;28;20105;-67
2024/03/12 03:41:07;;;;;;;8.43;4.40;;;;;;;;;;5015411;28;20109;-60
2024/03/12 03:43:33;;;;;;;10.07;5.45;;;;;;;;;;5017818;28;20116;-60
2024/03/12 03:45:58;;;;;;;9.77;4.82;;;;;;;;;;5013614;28;20359;-58
2024/03/12 03:48:23;;;;;;;7.88;3.85;;;;;;;;;;5013662;28;20441;-60
2024/03/12 03:50:48;;;;;;;9.13;3.80;;;;;;;;;;5012159;28;20030;-59
2024/03/12 03:53:13;;;;;;;8.45;3.83;;;;;;;;;;5015746;28;20469;-60
2024/03/12 03:55:39;;;;;;;7.63;3.53;;;;;;;;;;5009757;28;20061;-60
2024/03/12 03:58:04;;;;;;;8.10;4.30;;;;;;;;;;5013369;28;20026;-59
2024/03/12 04:00:31;;;;;;;9.65;4.28;;;;;;;;;;5014381;28;20025;-59
2024/03/12 04:02:57;;;;;;;8.90;4.38;;;;;;;;;;5012853;28;20025;-60
2024/03/12 04:05:22;;;;;;;11.15;5.40;;;;;;;;;;5012284;28;20022;-59
2024/03/12 04:07:49;;;;;;;10.40;5.00;;;;;;;;;;5033410;28;20022;-59
2024/03/12 04:10:15;;;;;;;9.43;5.00;;;;;;;;;;5031686;28;20038;-59
2024/03/12 04:12:46;;;;;;;9.60;4.97;;;;;;;;;;5032195;28;20524;-60
2024/03/12 04:15:12;;;;;;;8.60;4.50;;;;;;;;;;5008952;28;20026;-59
2024/03/12 04:17:37;;;;;;;7.93;4.20;;;;;;;;;;5012086;28;20028;-60
2024/03/12 04:20:09;;;;;;;7.72;4.35;;;;;;;;;;5007704;28;20120;-59
2024/03/12 04:22:34;;;;;;;9.90;4.90;;;;;;;;;;5012695;28;20022;-60
2024/03/12 04:25:01;;;;;;;7.70;4.30;;;;;;;;;;5015494;28;20029;-60
2024/03/12 04:27:27;;;;;;;;;;;;;;;;;;5013429;28;20551;-61
2024/03/12 04:29:52;;;;;;;8.00;4.28;;;;;;;;;;5012337;28;19940;-60
2024/03/12 04:32:17;;;;;;;8.68;4.70;;;;;;;;;;5012408;28;20026;-61
2024/03/12 04:34:44;;;;;;;8.43;4.30;;;;;;;;;;5013914;28;20079;-59
2024/03/12 04:37:12;;;;;;;;;;;;;;;;;;5013462;28;20050;-59
2024/03/12 04:39:38;;;;;;;9.25;4.43;;;;;;;;;;5012648;28;19913;-61
2024/03/12 04:42:07;;;;;;;9.35;4.90;;;;;;;;;;5010722;28;20390;-60
2024/03/12 04:44:35;;;;;;;9.85;4.97;;;;;;;;;;5012999;28;20025;-61
2024/03/12 04:47:00;;;;;;;10.48;5.13;;;;;;;;;;5005249;28;20075;-61
2024/03/12 04:49:26;;;;;;;9.18;4.85;;;;;;;;;;5011783;28;20041;-60
2024/03/12 04:51:51;;;;;;;10.50;5.10;;;;;;;;;;5010977;28;20033;-59
2024/03/12 04:54:18;;;;;;;9.07;4.93;;;;;;;;;;5012235;28;20088;-60
2024/03/12 04:56:44;;;;;;;10.38;5.30;;;;;;;;;;5013823;28;20022;-62
2024/03/12 04:59:09;;;;;;;8.90;4.88;;;;;;;;;;5012223;28;20096;-60
2024/03/12 05:01:34;;;;;;;8.20;4.53;;;;;;;;;;5010444;28;20044;-59
2024/03/12 05:03:59;;;;;;;8.07;4.82;;;;;;;;;;5012327;28;20038;-60
2024/03/12 05:06:25;;;;;;;8.00;4.40;;;;;;;;;;5004852;28;20040;-60
2024/03/12 05:08:50;;;;;;;10.00;4.73;;;;;;;;;;5007468;28;20569;-60
2024/03/12 05:11:15;;;;;;;12.30;5.20;;;;;;;;;;5009397;28;20038;-60
2024/03/12 05:13:43;;;;;;;10.27;4.70;;;;;;;;;;5008444;28;20015;-60
2024/03/12 05:16:08;;;;;;;9.57;4.68;;;;;;;;;;5007352;28;20026;-60
2024/03/12 05:18:33;;;;;;;11.73;4.88;;;;;;;;;;5007424;28;21051;-60
2024/03/12 05:20:58;;;;;;;8.77;4.90;;;;;;;;;;5010932;28;20033;-60
2024/03/12 05:23:23;;;;;;;10.03;5.10;;;;;;;;;;5012968;28;20022;-60
2024/03/12 05:25:51;;;;;;;15.25;5.57;;;;;;;;;;5007567;28;20033;-60
2024/03/12 05:28:19;;;;;;;8.90;4.50;;;;;;;;;;5002961;28;20533;-60
2024/03/12 05:30:44;;;;;;;10.23;4.90;;;;;;;;;;5001403;28;20549;-59
2024/03/12 05:33:12;;;;;;;8.93;4.63;;;;;;;;;;5005636;28;20113;-58
2024/03/12 05:35:38;;;;;;;8.60;4.50;;;;;;;;;;5007369;28;20041;-60
2024/03/12 05:38:07;;;;;;;9.95;5.40;;;;;;;;;;5005195;28;20083;-58
2024/03/12 05:40:43;;;;;;;10.40;5.07;;;;;;;;;;5007109;28;20033;-60
2024/03/12 05:48:37;;;;;;;;;;;;;;;;;;5005642;28;20520;-58
2024/03/12 05:51:02;;;;;;;8.95;4.35;;;;;;;;;;5005799;28;19948;-60
2024/03/12 05:53:28;;;;;;;10.97;5.47;;;;;;;;;;5004478;28;20017;-60
2024/03/12 05:55:53;;;;;;;9.98;5.20;;;;;;;;;;4999942;28;21067;-61
2024/03/12 05:58:18;;;;;;;10.10;5.33;;;;;;;;;;4996880;28;20033;-60
2024/03/12 06:00:45;;;;;;;10.30;4.80;;;;;;;;;;4999125;28;20092;-59
2024/03/12 06:03:10;;;;;;;;;;;;;;;;;;5000408;28;20029;-61
2024/03/12 06:05:35;;;;;;;8.45;4.57;;;;;;;;;;5006131;28;19917;-60
2024/03/12 06:08:00;;;;;;;14.77;4.95;;;;;;;;;;5007319;28;20557;-59
2024/03/12 06:10:26;;;;;;;9.70;4.95;;;;;;;;;;5005862;28;20037;-60
2024/03/12 06:12:51;;;;;;;8.70;4.22;;;;;;;;;;5005632;28;20393;-60
2024/03/12 06:15:16;;;;;;;9.15;4.78;;;;;;;;;;5009788;28;20486;-59
2024/03/12 06:17:41;;;;;;;8.77;4.60;;;;;;;;;;5008362;28;20030;-59
2024/03/12 06:20:07;;;;;;;9.80;4.63;;;;;;;;;;5011222;28;20026;-60
2024/03/12 06:22:32;;;;;;;11.38;4.80;;;;;;;;;;5011219;28;20470;-60
2024/03/12 06:24:58;;;;;;;8.70;4.63;;;;;;;;;;5010528;28;20021;-59
2024/03/12 06:27:23;;;;;;;10.20;4.68;;;;;;;;;;5011373;28;20042;-59
2024/03/12 06:29:51;;;;;;;8.35;4.43;;;;;;;;;;5010884;28;20029;-59
2024/03/12 06:32:19;;;;;;;10.10;5.03;;;;;;;;;;5009200;28;20053;-60
2024/03/12 06:34:45;;;;;;;8.32;4.40;;;;;;;;;;5003022;28;20022;-59
2024/03/12 06:37:10;;;;;;;11.80;4.75;;;;;;;;;;5008052;28;20092;-60
2024/03/12 06:39:35;;;;;;;9.83;4.83;;;;;;;;;;5007737;28;20073;-58
2024/03/12 06:42:01;;;;;;;11.93;5.20;;;;;;;;;;5013869;28;20534;-60
2024/03/12 06:44:27;;;;;;;9.45;5.00;;;;;;;;;;5012353;28;21135;-57
2024/03/12 06:46:52;;;;;;;9.60;4.93;;;;;;;;;;5012199;28;20042;-59
2024/03/12 06:49:19;;;;;;;10.00;5.22;;;;;;;;;;5014180;28;20058;-60
2024/03/12 06:51:47;;;;;;;10.40;4.78;;;;;;;;;;5014694;28;20018;-58
2024/03/12 06:54:12;;;;;;;12.48;5.68;;;;;;;;;;5013073;28;20504;-61
2024/03/12 06:56:42;;;;;;;9.97;5.03;;;;;;;;;;5013826;28;20026;-59
2024/03/12 06:59:09;;;;;;;11.38;5.20;;;;;;;;;;5012776;28;20091;-58
2024/03/12 07:01:40;;;;;;;10.27;5.50;;;;;;;;;;5006214;28;20021;-59
2024/03/12 07:04:06;;;;;;;10.80;5.93;;;;;;;;;;4997787;28;20029;-60
2024/03/12 07:06:32;;;;;;;11.48;6.15;;;;;;;;;;5003121;28;20740;-59
2024/03/12 07:09:01;;;;;;;11.57;5.85;;;;;;;;;;5006789;28;20084;-59
2024/03/12 07:11:26;;;;;;;11.65;5.43;;;;;;;;;;5004376;28;20026;-61
2024/03/12 07:14:01;;;;;;;12.32;5.68;;;;;;;;;;5008266;28;20156;-60
2024/03/12 07:16:27;;;;;;;11.23;5.47;;;;;;;;;;5009218;28;20074;-58
2024/03/12 07:18:54;;;;;;;11.02;5.20;;;;;;;;;;5002178;28;20030;-59
2024/03/12 07:21:22;;;;;;;11.00;6.00;;;;;;;;;;5009732;28;20041;-58
2024/03/12 07:23:47;;;;;;;11.27;5.38;;;;;;;;;;5010010;28;20028;-59
2024/03/12 07:26:12;;;;;;;11.80;5.55;;;;;;;;;;5010198;28;20030;-60
2024/03/12 07:28:38;;;;;;;10.77;4.93;;;;;;;;;;5010229;28;20129;-61
2024/03/12 07:31:03;;;;;;;10.32;4.80;;;;;;;;;;5007833;28;20657;-58
2024/03/12 07:33:29;;;;;;;10.65;5.28;;;;;;;;;;5010620;28;20022;-59
2024/03/12 07:35:54;;;;;;;10.30;5.55;;;;;;;;;;5009719;28;20429;-60
2024/03/12 07:38:19;;;;;;;10.80;5.70;;;;;;;;;;5005794;28;20022;-58
2024/03/12 07:40:45;;;;;;;13.40;5.50;;;;;;;;;;5010826;28;20010;-60
2024/03/12 07:43:11;;;;;;;12.50;6.30;;;;;;;;;;5013272;28;20255;-60
2024/03/12 07:45:36;;;;;;;10.73;5.65;;;;;;;;;;5010911;28;20072;-61
2024/03/12 07:48:01;;;;;;;12.23;6.10;;;;;;;;;;5012074;28;20030;-60
2024/03/12 07:50:31;;;;;;;15.20;6.70;;;;;;;;;;5010375;28;20501;-59
2024/03/12 07:52:56;;;;;;;12.57;6.13;;;;;;;;;;5008246;28;20018;-59
2024/03/12 07:55:22;;;;;;;11.82;5.57;;;;;;;;;;5015460;28;20397;-60
2024/03/12 07:57:47;;;;;;;12.38;6.32;;;;;;;;;;5015271;28;20144;-59
2024/03/12 08:00:16;;;;;;;11.93;5.63;;;;;;;;;;5018013;28;20033;-59
2024/03/12 08:02:41;;;;;;;11.05;5.18;;;;;;;;;;5016485;28;20021;-59
2024/03/12 08:05:07;;;;;;;11.87;6.20;;;;;;;;;;5016559;28;20032;-59
2024/03/12 08:07:32;;;;;;;12.00;5.70;;;;;;;;;;5014201;28;20018;-59
2024/03/12 08:09:58;;;;;;;10.02;5.90;;;;;;;;;;5011533;28;20037;-59
2024/03/12 08:12:23;;;;;;;10.73;5.47;;;;;;;;;;5011563;28;20038;-59
2024/03/12 08:14:48;;;;;;;10.60;5.83;;;;;;;;;;5004968;28;20018;-59
2024/03/12 08:17:14;;;;;;;11.53;5.90;;;;;;;;;;5012870;28;20080;-58
2024/03/12 08:19:40;;;;;;;10.70;6.07;;;;;;;;;;5006861;28;20029;-59
2024/03/12 08:22:08;;;;;;;10.73;5.68;;;;;;;;;;5013063;28;20126;-60
2024/03/12 08:24:33;;;;;;;13.57;6.30;;;;;;;;;;5011918;28;20150;-59
2024/03/12 08:26:59;;;;;;;13.23;6.18;;;;;;;;;;4993678;28;20079;-59
2024/03/12 08:29:24;;;;;;;11.20;6.00;;;;;;;;;;5008257;28;20034;-59
2024/03/12 08:31:49;;;;;;;11.38;5.95;;;;;;;;;;5003224;28;20389;-59
2024/03/12 08:34:17;;;;;;;13.33;6.27;;;;;;;;;;5008398;28;20014;-60
2024/03/12 08:36:43;;;;;;;10.90;6.20;;;;;;;;;;5009977;28;20156;-59
2024/03/12 08:39:11;;;;;;;14.13;5.88;;;;;;;;;;5008418;28;20395;-60
2024/03/12 08:41:36;;;;;;;12.07;5.72;;;;;;;;;;5010944;28;20033;-61
2024/03/12 08:44:01;;;;;;;15.37;6.23;;;;;;;;;;5012313;28;20032;-59
2024/03/12 08:46:28;;;;;;;14.83;6.10;;;;;;;;;;5011788;28;20034;-59
2024/03/12 08:48:53;;;;;;;12.32;5.95;;;;;;;;;;5004750;28;20057;-59
2024/03/12 08:51:18;;;;;;;10.17;5.00;;;;;;;;;;5011294;28;20056;-60
2024/03/12 08:53:43;;;;;;;9.80;4.85;;;;;;;;;;5011453;28;20014;-59
2024/03/12 08:56:09;;;;;;;9.10;4.93;;;;;;;;;;5011802;28;20033;-59
2024/03/12 08:58:34;;;;;;;9.38;4.40;;;;;;;;;;5011124;28;20372;-60
2024/03/12 09:01:00;;;;;;;9.00;4.70;;;;;;;;;;5007546;28;20029;-60
2024/03/12 09:03:25;;;;;;;11.30;5.10;;;;;;;;;;5011685;28;20105;-59
2024/03/12 09:05:50;;;;;;;11.95;5.03;;;;;;;;;;5013998;28;20022;-59
2024/03/12 09:08:17;;;;;;;8.27;4.27;;;;;;;;;;5011691;28;20077;-60
2024/03/12 09:10:42;;;;;;;9.20;4.25;;;;;;;;;;5004471;28;20022;-61
2024/03/12 09:13:08;;;;;;;8.00;4.50;;;;;;;;;;5007003;28;20145;-60
2024/03/12 09:15:33;;;;;;;7.47;3.35;;;;;;;;;;5009294;28;20037;-60
2024/03/12 09:18:04;;;;;;;7.97;3.43;;;;;;;;;;5011137;28;20034;-59
2024/03/12 09:20:29;;;;;;;6.05;2.72;;;;;;;;;;5010209;28;21102;-60
2024/03/12 09:22:54;;;;;;;6.38;2.78;;;;;;;;;;5010636;28;20109;-61
2024/03/12 09:25:20;;;;;;;6.27;3.17;;;;;;;;;;5003359;28;20022;-60
2024/03/12 09:27:46;;;;;;;5.47;2.80;;;;;;;;;;5010985;28;20145;-60
2024/03/12 09:30:12;;;;;;;9.13;2.90;;;;;;;;;;5010526;28;20084;-58
2024/03/12 09:32:37;;;;;;;6.68;2.88;;;;;;;;;;5011031;28;20017;-59
2024/03/12 09:35:02;;;;;;;6.10;2.83;;;;;;;;;;5009715;28;20152;-59
2024/03/12 09:37:28;;;;;;;6.00;2.92;;;;;;;;;;5006987;28;20455;-59
2024/03/12 09:39:53;;;;;;;6.03;3.10;;;;;;;;;;5009433;28;20089;-59
2024/03/12 09:42:20;;;;;;;5.32;2.70;;;;;;;;;;5010583;28;20441;-59
2024/03/12 09:44:45;;;;;;;6.05;2.50;;;;;;;;;;5010919;28;20025;-60
2024/03/12 09:47:11;;;;;;;6.20;2.70;;;;;;;;;;5010671;28;20029;-60
2024/03/12 09:49:36;;;;;;;6.32;2.90;;;;;;;;;;5010572;28;20030;-61
2024/03/12 09:52:06;;;;;;;9.02;3.25;;;;;;;;;;5010981;28;20036;-59
2024/03/12 09:54:32;;;;;;;6.38;2.65;;;;;;;;;;5010504;28;20030;-59
2024/03/12 09:56:58;;;;;;;6.30;3.00;;;;;;;;;;5010324;28;20018;-59
2024/03/12 09:59:24;;;;;;;8.35;3.17;;;;;;;;;;5010692;28;20033;-60
2024/03/12 10:01:49;;;;;;;8.65;3.00;;;;;;;;;;5011436;28;20430;-59
2024/03/12 10:04:16;;;;;;;6.13;3.10;;;;;;;;;;5009647;28;20548;-60
2024/03/12 10:06:41;;;;;;;7.75;3.03;;;;;;;;;;5010576;28;20021;-59
2024/03/12 10:09:12;;;;;;;5.80;2.83;;;;;;;;;;5010664;28;20115;-60
2024/03/12 10:11:40;;;;;;;7.70;3.47;;;;;;;;;;5005482;28;20503;-61
2024/03/12 10:14:05;;;;;;;7.20;3.10;;;;;;;;;;5007519;28;20029;-60
2024/03/12 10:16:32;;;;;;;7.45;3.38;;;;;;;;;;5018266;28;20022;-60
2024/03/12 10:19:11;;;;;;;8.35;3.28;;;;;;;;;;5020523;28;20517;-60
2024/03/12 10:21:36;;;;;;;6.22;3.03;;;;;;;;;;5015807;28;20034;-60
2024/03/12 10:24:28;;;;;;;6.90;2.75;;;;;;;;;;5011549;28;20117;-62
2024/03/12 10:27:00;;;;;;;8.48;3.22;;;;;;;;;;5015334;28;20505;-59
2024/03/12 10:29:32;;;;;;;6.90;3.22;;;;;;;;;;5013137;28;20034;-59
2024/03/12 10:31:57;;;;;;;6.43;3.13;;;;;;;;;;5014241;28;20037;-60
2024/03/12 10:34:27;;;;;;;6.40;3.10;;;;;;;;;;5015146;28;20018;-61
2024/03/12 10:36:52;;;;;;;8.85;3.47;;;;;;;;;;5014249;28;20360;-61
2024/03/12 10:39:27;;;;;;;6.80;3.10;;;;;;;;;;5012679;28;20088;-60
2024/03/12 10:41:56;;;;;;;6.45;3.30;;;;;;;;;;5014224;28;20847;-60
2024/03/12 10:44:22;;;;;;;8.00;3.30;;;;;;;;;;5013522;28;20093;-60
2024/03/12 10:46:48;;;;;;;6.30;3.10;;;;;;;;;;5015098;28;20442;-60
2024/03/12 10:49:15;;;;;;;7.03;3.33;;;;;;;;;;5013454;28;20081;-60
2024/03/12 10:51:44;;;;;;;8.50;3.33;;;;;;;;;;5012599;28;20049;-61
2024/03/12 10:54:13;;;;;;;6.80;3.00;;;;;;;;;;5012890;28;20057;-60
2024/03/12 10:56:39;;;;;;;6.45;3.20;;;;;;;;;;5015059;28;20421;-60
2024/03/12 10:59:04;;;;;;;7.75;3.60;;;;;;;;;;5019441;28;20032;-61
2024/03/12 11:01:30;;;;;;;7.13;3.50;;;;;;;;;;5022367;28;20121;-60
2024/03/12 11:03:56;;;;;;;7.28;3.10;;;;;;;;;;5025184;28;20386;-60
2024/03/12 11:06:21;;;;;;;6.55;3.60;;;;;;;;;;5030200;28;20030;-60
2024/03/12 11:08:47;;;;;;;6.88;3.40;;;;;;;;;;5027208;28;20026;-62
2024/03/12 11:11:13;;;;;;;7.20;3.75;;;;;;;;;;5024880;28;20044;-59
2024/03/12 11:13:40;;;;;;;6.80;3.47;;;;;;;;;;5024579;28;20044;-59
2024/03/12 11:16:09;;;;;;;6.88;3.47;;;;;;;;;;5030535;28;20026;-60
2024/03/12 11:18:35;;;;;;;7.10;4.13;;;;;;;;;;5032916;28;20048;-64
2024/03/12 11:21:03;;;;;;;6.70;3.25;;;;;;;;;;5024464;28;20394;-60
2024/03/12 11:23:28;;;;;;;6.05;3.55;;;;;;;;;;5025772;28;20022;-60
2024/03/12 11:25:56;;;;;;;7.10;3.47;;;;;;;;;;5032616;28;20164;-60
2024/03/12 11:28:22;;;;;;;8.05;3.78;;;;;;;;;;5032118;28;20018;-60
2024/03/12 11:30:48;;;;;;;6.72;3.63;;;;;;;;;;5026584;28;20093;-59
2024/03/12 11:33:34;;;;;;;7.03;3.92;;;;;;;;;;5012636;28;20060;-60
2024/03/12 11:35:59;;;;;;;8.23;3.75;;;;;;;;;;5013134;28;20018;-59
2024/03/12 11:38:27;;;;;;;7.82;4.28;;;;;;;;;;5011246;28;20032;-61
2024/03/12 11:40:53;;;;;;;7.65;4.20;;;;;;;;;;5014079;28;20033;-60
2024/03/12 11:43:37;;;;;;;7.67;4.17;;;;;;;;;;5012817;28;20029;-60
2024/03/12 11:46:04;;;;;;;7.35;3.60;;;;;;;;;;5014007;28;20429;-59
2024/03/12 11:48:37;;;;;;;8.15;4.10;;;;;;;;;;5011905;28;20046;-60
2024/03/12 11:51:04;;;;;;;;;;;;;;;;;;5011828;28;20026;-59
2024/03/12 11:53:33;;;;;;;6.55;3.70;;;;;;;;;;5027554;28;19909;-60
2024/03/12 11:56:10;;;;;;;6.75;3.72;;;;;;;;;;5012048;28;20113;-60
2024/03/12 11:58:46;;;;;;;6.63;4.07;;;;;;;;;;5005711;28;20018;-61
2024/03/12 12:01:15;;;;;;;8.20;3.85;;;;;;;;;;5008946;28;20057;-59
2024/03/12 12:03:40;;;;;;;6.95;4.05;;;;;;;;;;5012184;28;20474;-60
2024/03/12 12:06:06;;;;;;;7.37;4.00;;;;;;;;;;5012288;28;20037;-59
2024/03/12 12:08:32;;;;;;;8.98;4.07;;;;;;;;;;5011145;28;20452;-60
2024/03/12 12:10:57;;;;;;;7.38;4.18;;;;;;;;;;5011926;28;20021;-61
2024/03/12 12:13:23;;;;;;;6.67;3.73;;;;;;;;;;5011907;28;20022;-61
2024/03/12 12:15:57;;;;;;;8.15;3.88;;;;;;;;;;4992873;28;20022;-61
2024/03/12 12:18:22;;;;;;;7.90;3.95;;;;;;;;;;5009125;28;20063;-60
2024/03/12 12:20:48;;;;;;;6.73;3.60;;;;;;;;;;5012741;28;20018;-59
2024/03/12 12:23:13;;;;;;;6.50;3.80;;;;;;;;;;5011780;28;20607;-59
2024/03/12 12:25:38;;;;;;;7.13;3.47;;;;;;;;;;5011608;28;20521;-60
2024/03/12 12:28:07;;;;;;;6.75;3.80;;;;;;;;;;5012230;28;20490;-59
2024/03/12 12:30:34;;;;;;;7.45;3.88;;;;;;;;;;5005095;28;20124;-61
2024/03/12 12:32:59;;;;;;;6.60;3.33;;;;;;;;;;5014296;28;20552;-59
2024/03/12 12:35:25;;;;;;;6.80;3.38;;;;;;;;;;5021570;28;20069;-60
2024/03/12 12:37:50;;;;;;;7.43;3.72;;;;;;;;;;5022161;28;20034;-60
2024/03/12 12:40:17;;;;;;;9.48;4.10;;;;;;;;;;5023412;28;20304;-60
2024/03/12 12:42:43;;;;;;;6.57;3.70;;;;;;;;;;5020574;28;20030;-61
2024/03/12 12:45:10;;;;;;;6.07;3.63;;;;;;;;;;5016840;28;20639;-60
2024/03/12 12:47:36;;;;;;;6.50;3.35;;;;;;;;;;5015828;28;20026;-60
2024/03/12 12:50:01;;;;;;;8.30;3.58;;;;;;;;;;5009519;28;20071;-60
2024/03/12 12:52:29;;;;;;;6.15;3.08;;;;;;;;;;5003884;28;20397;-59
2024/03/12 12:54:57;;;;;;;6.30;3.38;;;;;;;;;;5011838;28;20029;-60
2024/03/12 12:57:23;;;;;;;6.03;3.38;;;;;;;;;;5011830;28;20025;-59
2024/03/12 12:59:49;;;;;;;6.07;3.10;;;;;;;;;;5011741;28;20437;-59
2024/03/12 13:02:18;;;;;;;6.45;3.40;;;;;;;;;;5012690;28;20026;-62
2024/03/12 13:04:43;;;;;;;6.90;3.88;;;;;;;;;;5004476;28;20018;-62
2024/03/12 13:07:09;;;;;;;6.13;3.00;;;;;;;;;;5012600;28;20052;-59
2024/03/12 13:09:38;;;;;;;6.15;2.70;;;;;;;;;;5011709;28;20489;-61
2024/03/12 13:12:07;;;;;;;7.72;3.08;;;;;;;;;;5005853;28;20033;-59
2024/03/12 13:14:33;;;;;;;6.28;2.95;;;;;;;;;;5009214;28;20021;-60
2024/03/12 13:16:59;;;;;;;5.20;3.10;;;;;;;;;;5009513;28;20530;-60
2024/03/12 13:19:24;;;;;;;5.55;2.70;;;;;;;;;;5010171;28;20056;-60
2024/03/12 13:21:49;;;;;;;5.35;2.90;;;;;;;;;;5007373;28;20433;-59
2024/03/12 13:24:15;;;;;;;5.28;2.60;;;;;;;;;;5011086;28;20109;-59
2024/03/12 13:26:41;;;;;;;7.67;2.80;;;;;;;;;;5011669;28;20018;-60
2024/03/12 13:29:07;;;;;;;6.03;3.05;;;;;;;;;;5011011;28;20029;-59
2024/03/12 13:31:32;;;;;;;6.07;3.45;;;;;;;;;;5012875;28;20025;-60
2024/03/12 13:33:57;;;;;;;5.43;2.83;;;;;;;;;;5015375;28;20133;-60
2024/03/12 13:36:25;;;;;;;6.73;3.00;;;;;;;;;;5012106;28;20029;-61
2024/03/12 13:38:52;;;;;;;5.35;2.90;;;;;;;;;;5010255;28;20044;-59
2024/03/12 13:41:17;;;;;;;6.28;3.40;;;;;;;;;;5008377;28;20026;-60
2024/03/12 13:43:44;;;;;;;7.30;3.50;;;;;;;;;;5015744;28;20109;-60
2024/03/12 13:46:10;;;;;;;7.10;3.30;;;;;;;;;;5012288;28;20022;-61
2024/03/12 13:48:39;;;;;;;6.28;3.08;;;;;;;;;;5011776;28;20123;-61
2024/03/12 13:51:07;;;;;;;6.60;3.35;;;;;;;;;;5015399;28;20040;-59
2024/03/12 13:53:32;;;;;;;7.90;3.33;;;;;;;;;;5013845;28;20038;-62
2024/03/12 13:55:58;;;;;;;5.40;3.00;;;;;;;;;;5013408;28;20474;-59
2024/03/12 13:58:26;;;;;;;6.20;3.25;;;;;;;;;;5012122;28;20021;-60
2024/03/12 14:00:59;;;;;;;7.43;3.20;;;;;;;;;;5013878;28;20034;-60
2024/03/12 14:03:24;;;;;;;5.55;2.70;;;;;;;;;;5013900;28;20022;-60
2024/03/12 14:05:50;;;;;;;5.47;2.90;;;;;;;;;;5013822;28;20026;-62
2024/03/12 14:08:16;;;;;;;7.63;2.70;;;;;;;;;;5013726;28;20478;-60
2024/03/12 14:10:42;;;;;;;6.35;3.47;;;;;;;;;;5012753;28;20037;-60
2024/03/12 14:13:07;;;;;;;6.10;3.00;;;;;;;;;;5014817;28;20025;-60
2024/03/12 14:15:34;;;;;;;5.95;2.90;;;;;;;;;;5010121;28;20037;-60
2024/03/12 14:17:59;;;;;;;5.80;3.08;;;;;;;;;;5007092;28;20040;-60
2024/03/12 14:20:25;;;;;;;6.05;3.10;;;;;;;;;;5020258;28;20030;-59
2024/03/12 14:22:51;;;;;;;6.57;3.40;;;;;;;;;;5015182;28;20124;-59
2024/03/12 14:25:16;;;;;;;5.63;2.92;;;;;;;;;;5010910;28;20703;-60
2024/03/12 14:27:41;;;;;;;5.17;3.03;;;;;;;;;;5014799;28;20022;-60
2024/03/12 14:30:08;;;;;;;5.10;2.80;;;;;;;;;;5012808;28;20065;-60
2024/03/12 14:32:33;;;;;;;;;;;;;;;;;;5011457;28;20022;-62
2024/03/12 14:34:58;;;;;;;5.43;2.85;;;;;;;;;;5013957;28;20036;-60
2024/03/12 14:37:24;;;;;;;5.35;2.42;;;;;;;;;;5010837;28;20509;-61
2024/03/12 14:39:49;;;;;;;5.00;2.55;;;;;;;;;;5010499;28;20029;-60
2024/03/12 14:42:14;;;;;;;4.80;2.43;;;;;;;;;;5008906;28;20104;-60